Time;durP1;ratioP1;P1;durP2;ratioP2;P2;SDS_P1;SDS_P2;PMS_P1;PMS_P2;Temp;Humidity;BMP_temperature;BMP_pressure;BME280_temperature;BME280_humidity;BME280_pressure;Samples;Min_cycle;Max_cycle;Signal;HPM_P1;HPM_P2
2023/10/03 00:00:34;;;;;;;19.23;11.30;;;20.90;99.90;;;;;;5053082;28;20648;-76
2023/10/03 00:03:09;;;;;;;22.77;12.90;;;20.80;99.90;;;;;;5053026;28;20583;-75
2023/10/03 00:05:38;;;;;;;19.30;11.23;;;20.80;99.90;;;;;;5036209;28;20594;-76
2023/10/03 00:08:04;;;;;;;20.07;12.77;;;20.80;99.90;;;;;;5052995;28;20614;-76
2023/10/03 00:10:32;;;;;;;19.53;11.37;;;20.80;99.90;;;;;;5036481;28;21015;-76
2023/10/03 00:12:59;;;;;;;16.37;11.20;;;20.80;99.90;;;;;;5070935;28;20578;-76
2023/10/03 00:15:26;;;;;;;19.80;10.73;;;20.90;99.90;;;;;;5070825;28;20579;-76
2023/10/03 00:17:55;;;;;;;20.20;11.40;;;20.90;99.90;;;;;;5053045;28;20937;-76
2023/10/03 00:20:22;;;;;;;16.23;10.40;;;20.90;99.90;;;;;;5070669;28;20622;-76
2023/10/03 00:22:50;;;;;;;19.63;11.63;;;21.00;99.90;;;;;;5052776;28;20614;-76
2023/10/03 00:25:19;;;;;;;19.03;11.77;;;21.00;99.90;;;;;;5070636;28;20953;-76
2023/10/03 00:27:50;;;;;;;19.77;12.10;;;21.00;99.90;;;;;;5053823;28;20602;-76
2023/10/03 00:30:20;;;;;;;19.97;11.63;;;21.00;99.90;;;;;;5038369;28;20649;-76
2023/10/03 00:32:48;;;;;;;18.83;13.20;;;21.00;99.90;;;;;;5052622;28;20961;-77
2023/10/03 00:35:15;;;;;;;21.83;12.03;;;21.00;99.90;;;;;;5070517;28;20585;-76
2023/10/03 00:37:43;;;;;;;17.37;11.40;;;21.00;99.90;;;;;;5035998;28;20571;-76
2023/10/03 00:42:52;;;;;;;17.47;11.50;;;21.00;99.90;;;;;;5052749;28;21038;-76
2023/10/03 00:45:25;;;;;;;22.13;11.27;;;21.10;99.90;;;;;;5070372;28;20621;-76
2023/10/03 00:47:58;;;;;;;18.67;11.33;;;21.10;99.90;;;;;;5052618;28;20586;-76
2023/10/03 00:50:26;;;;;;;20.73;10.90;;;21.10;99.90;;;;;;5052434;28;20650;-77
2023/10/03 00:52:55;;;;;;;19.47;11.53;;;21.10;99.90;;;;;;5052378;28;20699;-76
2023/10/03 00:55:29;;;;;;;20.50;13.50;;;21.10;99.90;;;;;;5070381;28;20575;-76
2023/10/03 01:00:43;;;;;;;18.03;12.10;;;21.10;99.90;;;;;;5056525;28;20625;-76
2023/10/03 01:03:29;;;;;;;17.63;11.40;;;21.10;99.90;;;;;;5056694;28;20705;-76
2023/10/03 01:05:59;;;;;;;16.27;11.00;;;21.10;99.90;;;;;;5077155;28;20598;-76
2023/10/03 01:08:29;;;;;;;18.37;10.83;;;21.20;99.90;;;;;;5057363;28;20917;-76
2023/10/03 01:11:00;;;;;;;19.17;12.90;;;21.20;99.90;;;;;;5056128;28;20658;-77
2023/10/03 01:13:27;;;;;;;18.07;12.23;;;21.20;99.90;;;;;;5056578;28;20629;-76
2023/10/03 01:15:56;;;;;;;19.70;11.40;;;21.20;99.90;;;;;;5039383;28;20586;-76
2023/10/03 01:18:26;;;;;;;18.07;11.00;;;21.30;99.90;;;;;;5056041;28;20590;-75
2023/10/03 01:20:55;;;;;;;18.57;11.40;;;21.20;99.90;;;;;;5039338;28;21218;-75
2023/10/03 01:23:31;;;;;;;16.97;10.43;;;21.20;99.90;;;;;;5056263;28;20693;-76
2023/10/03 01:25:57;;;;;;;18.67;11.03;;;21.20;99.90;;;;;;5039503;28;20590;-76
2023/10/03 01:28:22;;;;;;;14.60;9.50;;;21.20;99.90;;;;;;5056196;28;20603;-76
2023/10/03 01:30:51;;;;;;;16.40;10.57;;;21.20;99.90;;;;;;5055958;28;20673;-76
2023/10/03 01:33:17;;;;;;;16.83;11.73;;;21.20;99.90;;;;;;5056160;28;20199;-75
2023/10/03 01:35:42;;;;;;;15.57;11.43;;;21.20;99.90;;;;;;5055600;28;20587;-76
2023/10/03 01:38:08;;;;;;;20.20;11.60;;;21.20;99.90;;;;;;5055925;28;20627;-75
2023/10/03 01:40:34;;;;;;;17.23;11.07;;;21.20;99.90;;;;;;5039175;28;20678;-75
2023/10/03 01:43:00;;;;;;;20.07;11.50;;;21.20;99.90;;;;;;5042999;28;20180;-76
2023/10/03 01:45:28;;;;;;;18.40;11.33;;;21.20;99.90;;;;;;5055591;28;20640;-76
2023/10/03 01:47:58;;;;;;;19.67;11.60;;;21.10;99.90;;;;;;5055672;28;20698;-76
2023/10/03 01:50:29;;;;;;;19.37;12.13;;;21.20;99.90;;;;;;5055579;28;20708;-76
2023/10/03 01:52:55;;;;;;;16.20;11.17;;;21.20;99.90;;;;;;5055777;28;20585;-76
2023/10/03 01:55:22;;;;;;;19.20;11.63;;;21.20;99.90;;;;;;5038513;28;20579;-76
2023/10/03 01:57:48;;;;;;;20.10;11.53;;;21.20;99.90;;;;;;5038874;28;20578;-75
2023/10/03 02:02:45;;;;;;;19.60;11.23;;;21.20;99.90;;;;;;5056176;28;20586;-73
2023/10/03 02:05:12;;;;;;;19.80;12.20;;;21.20;99.90;;;;;;5022035;28;20591;-73
2023/10/03 02:07:39;;;;;;;17.50;11.47;;;21.20;99.90;;;;;;5038299;28;20677;-73
2023/10/03 02:10:05;;;;;;;17.67;11.60;;;21.20;99.90;;;;;;5038517;28;20638;-73
2023/10/03 02:12:31;;;;;;;19.80;12.40;;;21.20;99.90;;;;;;5055153;28;20579;-73
2023/10/03 02:14:57;;;;;;;20.50;13.03;;;21.20;99.90;;;;;;5038490;28;20593;-73
2023/10/03 02:17:22;;;;;;;19.47;12.33;;;21.20;99.90;;;;;;5054912;28;20176;-73
2023/10/03 02:19:48;;;;;;;18.93;10.80;;;21.20;99.90;;;;;;5038811;28;20179;-73
2023/10/03 02:22:14;;;;;;;19.17;10.23;;;21.10;99.90;;;;;;5072920;28;20207;-73
2023/10/03 02:24:39;;;;;;;17.73;11.70;;;21.10;99.90;;;;;;5055427;28;20172;-73
2023/10/03 02:27:07;;;;;;;16.50;10.00;;;21.10;99.90;;;;;;5054658;28;20176;-73
2023/10/03 02:29:33;;;;;;;19.00;11.67;;;21.10;99.90;;;;;;5072762;28;20626;-74
2023/10/03 02:32:02;;;;;;;22.13;12.07;;;21.10;99.90;;;;;;5072622;28;20616;-73
2023/10/03 02:34:33;;;;;;;19.23;11.13;;;21.10;99.90;;;;;;5072774;28;20594;-74
2023/10/03 02:36:59;;;;;;;20.30;11.80;;;21.10;99.90;;;;;;5037711;28;20616;-74
2023/10/03 02:39:34;;;;;;;17.73;11.53;;;21.10;99.90;;;;;;5038180;28;20579;-74
2023/10/03 02:42:00;;;;;;;18.50;11.30;;;21.10;99.90;;;;;;5054559;28;21040;-73
2023/10/03 02:44:27;;;;;;;21.47;11.43;;;21.20;99.90;;;;;;5054455;28;20959;-73
2023/10/03 02:46:53;;;;;;;17.30;10.80;;;21.20;99.90;;;;;;5062561;28;20586;-73
2023/10/03 02:49:19;;;;;;;19.90;12.20;;;21.20;99.90;;;;;;5037758;28;20614;-73
2023/10/03 02:51:45;;;;;;;17.47;10.07;;;21.20;99.90;;;;;;5037726;28;20664;-73
2023/10/03 02:54:10;;;;;;;20.13;11.70;;;21.20;99.90;;;;;;5054522;28;20629;-73
2023/10/03 02:56:36;;;;;;;20.70;11.33;;;21.20;99.90;;;;;;5037821;28;20262;-73
2023/10/03 02:59:03;;;;;;;16.87;10.70;;;21.20;99.90;;;;;;5054227;28;20585;-73
2023/10/03 03:01:31;;;;;;;17.80;11.27;;;21.20;99.90;;;;;;5054279;28;20200;-73
2023/10/03 03:03:57;;;;;;;17.27;11.33;;;21.30;99.90;;;;;;5037994;28;20586;-72
2023/10/03 03:06:22;;;;;;;17.13;10.07;;;21.30;99.90;;;;;;5054234;28;20579;-73
2023/10/03 03:08:52;;;;;;;28.13;11.80;;;21.30;99.90;;;;;;5054620;28;20173;-73
2023/10/03 03:11:19;;;;;;;21.30;10.20;;;21.30;99.90;;;;;;5054681;28;20204;-75
2023/10/03 03:13:44;;;;;;;16.83;10.00;;;21.30;99.90;;;;;;5073106;28;20605;-74
2023/10/03 03:16:11;;;;;;;20.10;12.00;;;21.30;99.90;;;;;;5072515;28;20180;-73
2023/10/03 03:18:41;;;;;;;16.53;10.50;;;21.40;99.90;;;;;;5054505;28;20180;-73
2023/10/03 03:21:15;;;;;;;20.70;11.37;;;21.40;99.90;;;;;;5052894;28;20673;-73
2023/10/03 03:23:43;;;;;;;17.87;9.90;;;21.40;99.90;;;;;;5054514;28;20594;-74
2023/10/03 03:26:21;;;;;;;17.30;10.33;;;21.40;99.90;;;;;;5054201;28;20651;-74
2023/10/03 03:28:51;;;;;;;16.30;10.17;;;21.40;99.90;;;;;;5053966;28;20601;-74
2023/10/03 03:31:22;;;;;;;15.27;9.63;;;21.40;99.90;;;;;;5053834;28;20960;-74
2023/10/03 03:33:49;;;;;;;17.33;9.50;;;21.50;99.90;;;;;;5037439;28;20590;-74
2023/10/03 03:36:20;;;;;;;13.90;8.73;;;21.50;99.90;;;;;;5071444;28;20614;-74
2023/10/03 03:38:47;;;;;;;14.57;8.93;;;21.50;99.90;;;;;;5037047;28;20674;-73
2023/10/03 03:41:13;;;;;;;13.73;8.83;;;21.50;99.90;;;;;;5053526;28;20607;-73
2023/10/03 03:43:39;;;;;;;16.57;10.40;;;21.50;99.90;;;;;;5071521;28;20582;-73
2023/10/03 03:46:05;;;;;;;18.40;10.60;;;21.60;99.90;;;;;;5071176;28;20609;-73
2023/10/03 03:48:34;;;;;;;13.70;8.73;;;21.60;99.90;;;;;;5053411;28;20587;-72
2023/10/03 03:51:06;;;;;;;17.20;9.60;;;21.60;99.90;;;;;;5053110;28;20223;-73
2023/10/03 03:53:32;;;;;;;13.37;9.27;;;21.70;99.90;;;;;;5071308;28;20622;-73
2023/10/03 03:56:00;;;;;;;13.77;9.13;;;21.70;99.90;;;;;;5070952;28;20961;-74
2023/10/03 03:58:26;;;;;;;14.43;9.63;;;21.80;99.90;;;;;;5071231;28;20571;-74
2023/10/03 04:00:52;;;;;;;16.30;8.87;;;21.80;99.90;;;;;;5053136;28;20614;-73
2023/10/03 04:03:24;;;;;;;14.17;9.27;;;21.80;99.90;;;;;;5071120;28;20987;-74
2023/10/03 04:05:50;;;;;;;15.93;9.23;;;21.80;99.90;;;;;;5052978;28;20693;-74
2023/10/03 04:08:16;;;;;;;15.40;8.97;;;21.90;99.90;;;;;;5071033;28;21018;-74
2023/10/03 04:10:43;;;;;;;14.87;9.30;;;21.90;99.90;;;;;;5055803;28;20654;-77
2023/10/03 04:13:39;;;;;;;16.80;9.67;;;21.90;99.90;;;;;;5077699;28;20650;-77
2023/10/03 04:16:08;;;;;;;13.20;8.10;;;22.00;99.90;;;;;;5047303;28;20591;-76
2023/10/03 04:18:34;;;;;;;14.70;9.50;;;22.00;99.90;;;;;;5053083;28;20597;-76
2023/10/03 04:21:00;;;;;;;14.80;9.07;;;22.00;99.90;;;;;;5070861;28;20626;-75
2023/10/03 04:23:27;;;;;;;14.50;8.90;;;22.00;99.90;;;;;;5071281;28;20678;-75
2023/10/03 04:25:53;;;;;;;16.20;9.27;;;22.00;99.90;;;;;;5053354;28;20567;-75
2023/10/03 04:28:18;;;;;;;14.90;8.77;;;22.00;99.90;;;;;;5053138;28;20590;-75
2023/10/03 04:30:45;;;;;;;13.57;8.10;;;22.00;99.90;;;;;;5070689;28;20216;-75
2023/10/03 04:33:11;;;;;;;14.63;8.63;;;22.10;99.90;;;;;;5071113;28;20222;-75
2023/10/03 04:35:37;;;;;;;14.97;8.77;;;22.10;99.90;;;;;;5036458;28;20570;-75
2023/10/03 04:38:04;;;;;;;13.80;8.70;;;22.10;99.90;;;;;;5053088;28;20578;-75
2023/10/03 04:40:37;;;;;;;13.67;8.57;;;22.10;99.90;;;;;;5053093;28;20287;-75
2023/10/03 04:43:15;;;;;;;11.40;7.53;;;22.10;99.90;;;;;;5071103;28;20978;-75
2023/10/03 04:45:42;;;;;;;13.70;7.97;;;22.10;99.90;;;;;;5072539;28;20597;-75
2023/10/03 04:48:08;;;;;;;14.23;8.37;;;22.10;99.90;;;;;;5072842;28;20563;-75
2023/10/03 04:50:39;;;;;;;14.73;7.97;;;22.10;99.90;;;;;;5052811;28;20630;-75
2023/10/03 04:53:09;;;;;;;13.50;9.13;;;22.10;99.90;;;;;;5052942;28;20585;-75
2023/10/03 04:55:35;;;;;;;12.23;7.40;;;22.10;99.90;;;;;;5070840;28;20559;-75
2023/10/03 04:58:00;;;;;;;13.47;7.70;;;22.10;99.90;;;;;;5052633;28;20665;-75
2023/10/03 05:00:26;;;;;;;12.07;7.83;;;22.10;99.90;;;;;;5036217;28;20693;-75
2023/10/03 05:02:53;;;;;;;12.93;7.90;;;22.10;99.90;;;;;;5070932;28;20172;-75
2023/10/03 05:05:21;;;;;;;11.53;7.50;;;22.10;99.90;;;;;;5052921;28;20704;-76
2023/10/03 05:07:56;;;;;;;11.70;8.00;;;22.10;99.90;;;;;;5036253;28;21162;-76
2023/10/03 05:10:23;;;;;;;12.10;7.60;;;22.10;99.90;;;;;;5052684;28;20638;-76
2023/10/03 05:12:51;;;;;;;10.93;7.40;;;22.10;99.90;;;;;;5052828;28;21139;-76
2023/10/03 05:15:18;;;;;;;11.37;7.47;;;22.10;99.90;;;;;;5070684;28;20582;-75
2023/10/03 05:17:45;;;;;;;12.13;7.70;;;22.10;99.90;;;;;;5052699;28;20704;-76
2023/10/03 05:20:17;;;;;;;9.97;7.00;;;22.10;99.90;;;;;;5070423;28;20603;-75
2023/10/03 05:22:46;;;;;;;11.70;6.40;;;22.10;99.90;;;;;;5055733;28;21012;-76
2023/10/03 05:25:18;;;;;;;13.23;7.07;;;22.10;99.90;;;;;;5052742;28;21001;-76
2023/10/03 05:27:48;;;;;;;10.50;7.27;;;22.10;99.90;;;;;;5052839;28;20905;-75
2023/10/03 05:30:14;;;;;;;11.30;7.07;;;22.10;99.90;;;;;;5035730;28;20626;-75
2023/10/03 05:32:42;;;;;;;10.80;7.00;;;22.20;99.90;;;;;;5052434;28;21158;-76
2023/10/03 05:35:09;;;;;;;10.00;5.93;;;22.20;99.90;;;;;;5052468;28;20570;-75
2023/10/03 05:37:35;;;;;;;9.40;6.77;;;22.20;99.90;;;;;;5035953;28;20578;-75
2023/10/03 05:43:03;;;;;;;8.40;5.50;;;22.40;99.90;;;;;;4999344;28;20583;-75
2023/10/03 05:45:29;;;;;;;12.87;5.80;;;22.40;99.90;;;;;;5056071;28;20609;-77
2023/10/03 05:47:55;;;;;;;10.33;5.83;;;22.50;99.90;;;;;;5074154;28;20598;-76
2023/10/03 05:50:22;;;;;;;9.73;5.73;;;22.50;99.90;;;;;;5073795;28;20633;-74
2023/10/03 05:52:48;;;;;;;11.37;5.60;;;22.50;99.90;;;;;;5039497;28;20165;-75
2023/10/03 05:55:14;;;;;;;7.73;5.13;;;22.60;99.90;;;;;;5055829;28;20579;-75
2023/10/03 05:57:43;;;;;;;10.90;5.80;;;22.60;99.90;;;;;;5039336;28;20944;-75
2023/10/03 06:00:16;;;;;;;7.97;5.10;;;22.60;99.90;;;;;;5077258;28;20597;-74
2023/10/03 06:02:43;;;;;;;8.17;5.83;;;22.70;99.90;;;;;;5073993;28;20628;-75
2023/10/03 06:05:09;;;;;;;9.73;5.80;;;22.70;99.90;;;;;;5056244;28;20685;-75
2023/10/03 06:07:38;;;;;;;9.37;5.60;;;22.70;99.90;;;;;;5055786;28;20583;-76
2023/10/03 06:10:05;;;;;;;9.27;5.37;;;22.70;99.90;;;;;;5073221;28;21061;-76
2023/10/03 06:12:31;;;;;;;11.00;5.80;;;22.80;99.90;;;;;;5073517;28;20566;-76
2023/10/03 06:14:57;;;;;;;10.10;5.13;;;22.80;99.90;;;;;;5055742;28;20635;-76
2023/10/03 06:17:23;;;;;;;9.77;5.73;;;22.90;99.90;;;;;;5055543;28;20586;-76
2023/10/03 06:19:50;;;;;;;9.20;5.10;;;22.90;99.90;;;;;;5055605;28;20173;-76
2023/10/03 06:22:17;;;;;;;7.97;5.00;;;22.90;99.90;;;;;;5055138;28;20216;-75
2023/10/03 06:24:43;;;;;;;8.13;5.13;;;23.00;99.90;;;;;;5055550;28;20632;-75
2023/10/03 06:27:10;;;;;;;8.40;4.93;;;23.10;99.90;;;;;;5073320;28;21127;-76
2023/10/03 06:29:39;;;;;;;9.17;6.00;;;23.10;99.90;;;;;;5073224;28;20630;-76
2023/10/03 06:32:04;;;;;;;9.50;6.33;;;23.10;99.90;;;;;;5073143;28;20593;-76
2023/10/03 06:34:30;;;;;;;10.63;5.57;;;23.20;99.90;;;;;;5055328;28;20999;-76
2023/10/03 06:36:56;;;;;;;6.93;4.67;;;23.20;99.90;;;;;;5076553;28;20164;-76
2023/10/03 06:39:22;;;;;;;13.60;6.07;;;23.20;99.90;;;;;;5055359;28;20167;-76
2023/10/03 06:41:47;;;;;;;7.67;4.77;;;23.30;99.90;;;;;;5038817;28;20602;-76
2023/10/03 06:44:14;;;;;;;6.10;4.30;;;23.30;99.90;;;;;;5038486;28;20198;-76
2023/10/03 06:46:42;;;;;;;9.80;5.63;;;23.30;99.90;;;;;;5073209;28;20195;-76
2023/10/03 06:49:10;;;;;;;10.07;5.13;;;23.40;99.90;;;;;;5073027;28;20579;-76
2023/10/03 06:51:37;;;;;;;8.13;5.27;;;23.40;99.90;;;;;;5038448;28;21253;-75
2023/10/03 06:54:03;;;;;;;7.50;5.40;;;23.40;99.90;;;;;;5054883;28;20571;-76
2023/10/03 06:56:32;;;;;;;8.73;5.83;;;23.50;99.90;;;;;;5054999;28;20593;-76
2023/10/03 06:58:59;;;;;;;12.27;6.40;;;23.50;99.90;;;;;;5038146;28;20574;-76
2023/10/03 07:01:25;;;;;;;10.47;5.60;;;23.40;99.90;;;;;;5074340;28;20717;-76
2023/10/03 07:03:53;;;;;;;10.00;5.60;;;23.50;99.90;;;;;;5055023;28;21408;-76
2023/10/03 07:06:19;;;;;;;9.37;5.90;;;23.50;99.90;;;;;;5054789;28;20215;-76
2023/10/03 07:08:45;;;;;;;8.67;5.00;;;23.50;99.90;;;;;;5073778;28;21392;-75
2023/10/03 07:11:15;;;;;;;7.93;5.47;;;23.50;99.90;;;;;;5054629;28;20211;-76
2023/10/03 07:13:41;;;;;;;8.70;5.37;;;23.50;99.90;;;;;;5076654;28;20628;-76
2023/10/03 07:16:09;;;;;;;9.00;5.03;;;23.50;99.90;;;;;;5054509;28;20570;-76
2023/10/03 07:18:35;;;;;;;5.87;5.20;;;23.50;99.90;;;;;;5054467;28;20575;-76
2023/10/03 07:21:03;;;;;;;8.27;4.70;;;23.50;99.90;;;;;;5054499;28;20646;-76
2023/10/03 07:23:39;;;;;;;5.70;3.90;;;23.50;99.90;;;;;;5066260;28;20589;-76
2023/10/03 07:26:23;;;;;;;7.27;5.20;;;23.40;99.90;;;;;;5060009;28;20574;-75
2023/10/03 07:29:13;;;;;;;8.00;3.77;;;23.40;99.90;;;;;;5042432;28;20647;-77
2023/10/03 07:32:00;;;;;;;5.97;3.60;;;23.40;99.90;;;;;;5065815;28;20629;-77
2023/10/03 07:34:26;;;;;;;9.50;4.07;;;23.40;99.90;;;;;;5026468;28;20732;-78
2023/10/03 07:36:52;;;;;;;4.27;3.20;;;23.30;99.90;;;;;;5057579;28;21190;-77
2023/10/03 07:39:18;;;;;;;5.00;3.17;;;23.30;99.90;;;;;;5054716;28;20523;-77
2023/10/03 07:41:44;;;;;;;7.27;2.73;;;23.30;99.90;;;;;;5054476;28;20220;-77
2023/10/03 07:44:10;;;;;;;8.23;3.17;;;23.30;99.90;;;;;;5054296;28;20582;-78
2023/10/03 07:46:36;;;;;;;7.70;2.97;;;23.20;99.90;;;;;;5071850;28;20176;-77
2023/10/03 07:49:02;;;;;;;5.93;3.07;;;23.10;99.90;;;;;;5054348;28;21218;-77
2023/10/03 07:51:29;;;;;;;5.53;3.53;;;23.10;99.90;;;;;;5074789;28;20237;-77
2023/10/03 07:53:56;;;;;;;4.00;2.77;;;23.10;99.90;;;;;;5071538;28;20638;-77
2023/10/03 07:56:29;;;;;;;5.03;3.50;;;23.00;99.90;;;;;;5071135;28;20655;-77
2023/10/03 07:58:56;;;;;;;6.90;3.33;;;23.00;99.90;;;;;;5053542;28;20222;-77
2023/10/03 08:01:24;;;;;;;4.60;2.77;;;22.90;99.90;;;;;;5053256;28;20614;-78
2023/10/03 08:03:53;;;;;;;4.93;3.27;;;22.90;99.90;;;;;;5071750;28;20658;-76
2023/10/03 08:06:22;;;;;;;4.60;2.90;;;22.90;99.90;;;;;;5070529;28;20594;-77
2023/10/03 08:08:49;;;;;;;5.20;3.40;;;22.90;99.90;;;;;;5053233;28;21001;-77
2023/10/03 08:11:15;;;;;;;5.67;3.07;;;22.90;99.90;;;;;;5070855;28;20653;-77
2023/10/03 08:13:41;;;;;;;6.00;3.30;;;22.90;99.90;;;;;;5053162;28;20579;-76
2023/10/03 08:16:07;;;;;;;4.67;2.70;;;23.00;99.90;;;;;;5052637;28;20172;-77
2023/10/03 08:18:36;;;;;;;7.07;3.40;;;23.10;99.90;;;;;;5052976;28;20173;-77
2023/10/03 08:21:03;;;;;;;7.97;3.83;;;23.20;99.90;;;;;;5070661;28;20626;-77
2023/10/03 08:23:33;;;;;;;5.00;2.80;;;23.20;99.90;;;;;;5070871;28;20582;-78
2023/10/03 08:26:02;;;;;;;4.97;2.50;;;23.30;99.90;;;;;;5071580;28;20613;-78
2023/10/03 08:28:32;;;;;;;4.63;2.93;;;23.30;99.90;;;;;;5073039;28;20567;-78
2023/10/03 08:31:06;;;;;;;4.40;2.57;;;23.40;99.90;;;;;;5070438;28;20642;-77
2023/10/03 08:33:36;;;;;;;4.20;2.10;;;23.50;99.90;;;;;;5061267;28;20679;-77
2023/10/03 08:36:14;;;;;;;3.03;2.30;;;23.60;99.90;;;;;;5070454;28;20667;-77
2023/10/03 08:38:44;;;;;;;3.97;2.80;;;23.70;99.90;;;;;;5070642;28;20579;-76
2023/10/03 08:41:17;;;;;;;3.80;1.90;;;23.70;99.90;;;;;;5070480;28;20642;-76
2023/10/03 08:43:45;;;;;;;4.30;2.50;;;23.80;99.90;;;;;;5070746;28;21165;-76
2023/10/03 08:46:15;;;;;;;5.30;2.33;;;23.80;99.90;;;;;;5052547;28;20594;-76
2023/10/03 08:48:43;;;;;;;2.77;1.63;;;23.80;99.90;;;;;;5052772;28;20591;-76
2023/10/03 08:51:13;;;;;;;4.43;1.20;;;23.80;99.90;;;;;;5052293;28;20650;-77
2023/10/03 08:53:40;;;;;;;3.40;1.60;;;23.80;99.90;;;;;;5052752;28;20590;-76
2023/10/03 08:56:08;;;;;;;4.23;1.70;;;23.80;99.90;;;;;;5070290;28;21143;-75
2023/10/03 08:58:34;;;;;;;4.73;2.03;;;23.90;99.90;;;;;;5052878;28;20640;-75
2023/10/03 09:01:02;;;;;;;3.23;1.50;;;23.90;99.90;;;;;;5070727;28;20744;-75
2023/10/03 09:03:47;;;;;;;2.47;1.50;;;24.00;99.90;;;;;;5057493;28;20583;-77
2023/10/03 09:06:20;;;;;;;2.30;1.27;;;24.20;99.90;;;;;;5052468;28;20587;-76
2023/10/03 09:08:52;;;;;;;1.90;1.27;;;24.30;99.90;;;;;;5070536;28;20614;-76
2023/10/03 09:11:18;;;;;;;3.87;1.80;;;24.40;99.90;;;;;;5052341;28;20645;-76
2023/10/03 09:13:48;;;;;;;3.53;1.50;;;24.50;99.90;;;;;;5052563;28;20578;-76
2023/10/03 09:16:19;;;;;;;5.10;1.57;;;24.50;99.90;;;;;;5052167;28;20674;-75
2023/10/03 09:18:55;;;;;;;5.10;1.30;;;24.50;99.90;;;;;;5072946;28;20586;-76
2023/10/03 09:21:25;;;;;;;2.73;1.47;;;24.50;99.90;;;;;;5073855;28;20663;-75
2023/10/03 09:23:59;;;;;;;3.03;1.50;;;24.40;99.90;;;;;;5056441;28;20598;-75
2023/10/03 09:26:26;;;;;;;2.90;2.10;;;24.30;99.90;;;;;;5039413;28;20626;-75
2023/10/03 09:28:51;;;;;;;3.27;1.30;;;24.30;99.90;;;;;;5074244;28;20589;-76
2023/10/03 09:31:22;;;;;;;3.03;1.53;;;24.20;99.90;;;;;;5055895;28;20642;-76
2023/10/03 09:33:48;;;;;;;3.40;1.10;;;24.10;99.90;;;;;;5056280;28;20268;-76
2023/10/03 09:36:14;;;;;;;2.53;1.20;;;24.00;99.90;;;;;;5073605;28;20673;-76
2023/10/03 09:38:46;;;;;;;4.40;1.40;;;23.90;99.90;;;;;;5074084;28;20575;-76
2023/10/03 09:41:17;;;;;;;3.10;1.40;;;23.90;99.90;;;;;;5077519;28;20626;-76
2023/10/03 09:43:53;;;;;;;2.87;1.30;;;23.80;99.90;;;;;;5055942;28;20592;-76
2023/10/03 09:46:23;;;;;;;3.77;1.40;;;23.80;99.90;;;;;;5073613;28;20643;-76
2023/10/03 09:48:53;;;;;;;3.20;1.00;;;23.80;99.90;;;;;;5073842;28;20610;-77
2023/10/03 09:51:36;;;;;;;4.57;1.70;;;23.80;99.90;;;;;;5022194;28;20742;-77
2023/10/03 09:54:10;;;;;;;5.10;1.80;;;23.80;99.90;;;;;;5055848;28;20583;-76
2023/10/03 09:56:40;;;;;;;3.67;1.30;;;23.80;99.90;;;;;;5073127;28;20574;-76
2023/10/03 09:59:17;;;;;;;3.13;1.10;;;23.80;99.90;;;;;;5073590;28;20686;-76
2023/10/03 10:01:45;;;;;;;4.07;1.63;;;23.80;99.90;;;;;;5055789;28;20678;-76
2023/10/03 10:04:15;;;;;;;3.50;1.60;;;23.80;99.90;;;;;;5073932;28;20965;-76
2023/10/03 10:06:49;;;;;;;3.50;2.00;;;23.90;99.90;;;;;;5065633;28;20598;-76
2023/10/03 10:09:29;;;;;;;2.33;1.27;;;24.00;99.90;;;;;;5073370;28;20951;-76
2023/10/03 10:12:24;;;;;;;4.20;1.90;;;24.00;99.90;;;;;;5038657;28;20621;-77
2023/10/03 10:15:13;;;;;;;5.00;2.37;;;24.00;99.90;;;;;;5075572;28;20621;-75
2023/10/03 10:17:51;;;;;;;4.20;2.33;;;24.00;99.90;;;;;;5062492;28;20590;-75
2023/10/03 10:20:27;;;;;;;6.70;2.07;;;24.10;99.90;;;;;;5073807;28;20675;-76
2023/10/03 10:23:02;;;;;;;3.60;2.70;;;24.10;99.90;;;;;;5073436;28;21007;-76
2023/10/03 10:25:28;;;;;;;6.30;2.53;;;24.10;99.90;;;;;;5056149;28;21227;-76
2023/10/03 10:28:07;;;;;;;3.30;2.03;;;24.10;99.90;;;;;;5073098;28;20594;-75
2023/10/03 10:30:34;;;;;;;3.03;1.70;;;24.10;99.90;;;;;;5038106;28;20652;-76
2023/10/03 10:33:18;;;;;;;6.97;2.43;;;24.00;99.90;;;;;;5055030;28;20644;-75
2023/10/03 10:36:09;;;;;;;3.40;2.50;;;24.00;99.90;;;;;;5072769;28;21305;-75
2023/10/03 10:38:34;;;;;;;5.27;3.20;;;24.00;99.90;;;;;;5056502;28;20582;-75
2023/10/03 10:41:22;;;;;;;4.30;2.77;;;24.00;99.90;;;;;;5054850;28;20640;-75
2023/10/03 10:44:06;;;;;;;6.57;3.50;;;24.00;99.90;;;;;;5054799;28;20191;-75
2023/10/03 10:46:42;;;;;;;2.83;2.00;;;23.90;99.90;;;;;;5054632;28;20594;-75
2023/10/03 10:49:30;;;;;;;4.17;2.03;;;23.90;99.90;;;;;;5054836;28;20594;-76
2023/10/03 10:52:07;;;;;;;2.93;2.23;;;23.90;99.90;;;;;;5072707;28;20615;-76
2023/10/03 10:54:35;;;;;;;4.60;3.20;;;23.80;99.90;;;;;;5076240;28;20574;-75
2023/10/03 10:57:03;;;;;;;6.90;4.30;;;23.70;99.90;;;;;;5054630;28;20578;-76
2023/10/03 10:59:36;;;;;;;7.67;4.47;;;23.70;99.90;;;;;;5054476;28;20643;-76
2023/10/03 11:02:06;;;;;;;4.30;3.80;;;23.60;99.90;;;;;;5054376;28;20614;-76
2023/10/03 11:04:33;;;;;;;6.90;4.03;;;23.60;99.90;;;;;;5072551;28;20687;-76
2023/10/03 11:06:59;;;;;;;4.30;3.03;;;23.50;99.90;;;;;;5072169;28;21069;-77
2023/10/03 11:09:25;;;;;;;5.93;3.40;;;23.50;99.90;;;;;;5054064;28;20678;-77
2023/10/03 11:11:51;;;;;;;4.70;2.40;;;23.50;99.90;;;;;;5054258;28;20658;-77
2023/10/03 11:14:31;;;;;;;3.20;1.80;;;23.50;99.90;;;;;;5054334;28;21073;-76
2023/10/03 11:16:58;;;;;;;3.70;1.53;;;23.40;99.90;;;;;;5053994;28;20176;-76
2023/10/03 11:19:25;;;;;;;3.83;1.40;;;23.30;99.90;;;;;;5054073;28;20587;-75
2023/10/03 11:21:51;;;;;;;3.37;1.23;;;23.20;99.90;;;;;;5037285;28;20749;-75
2023/10/03 11:24:21;;;;;;;2.17;1.07;;;23.00;99.90;;;;;;5071985;28;20582;-76
2023/10/03 11:26:47;;;;;;;2.53;1.30;;;22.80;99.90;;;;;;5071813;28;20578;-76
2023/10/03 11:29:17;;;;;;;3.40;1.00;;;22.60;99.90;;;;;;5053945;28;21412;-77
2023/10/03 11:31:45;;;;;;;2.57;1.10;;;22.40;99.90;;;;;;5057351;28;20622;-77
2023/10/03 11:34:11;;;;;;;4.67;1.57;;;22.10;99.90;;;;;;5072006;28;20660;-77
2023/10/03 11:36:44;;;;;;;1.80;0.90;;;21.90;99.90;;;;;;5071465;28;20598;-77
2023/10/03 11:39:18;;;;;;;2.90;1.17;;;21.60;99.90;;;;;;5053829;28;20595;-77
2023/10/03 11:41:44;;;;;;;3.00;1.40;;;21.40;99.90;;;;;;5052856;28;20622;-77
2023/10/03 11:44:17;;;;;;;3.10;1.57;;;21.20;99.90;;;;;;5053699;28;20583;-77
2023/10/03 11:46:44;;;;;;;6.33;1.70;;;21.00;99.90;;;;;;5063356;28;20582;-77
2023/10/03 11:49:10;;;;;;;3.55;1.70;;;20.80;99.90;;;;;;5053621;28;20617;-77
2023/10/03 11:51:38;;;;;;;3.03;1.70;;;20.70;99.90;;;;;;5053835;28;21316;-77
2023/10/03 11:54:08;;;;;;;2.63;1.47;;;20.60;99.90;;;;;;5054257;28;20183;-77
2023/10/03 11:56:46;;;;;;;4.67;2.00;;;20.40;99.90;;;;;;5072091;28;20622;-77
2023/10/03 11:59:15;;;;;;;4.50;2.83;;;20.40;99.90;;;;;;5054037;28;20605;-76
2023/10/03 12:01:48;;;;;;;4.20;2.33;;;20.20;99.90;;;;;;5053319;28;20668;-77
2023/10/03 12:04:15;;;;;;;3.70;2.57;;;20.20;99.90;;;;;;5054898;28;20934;-75
2023/10/03 12:06:41;;;;;;;3.97;1.73;;;20.10;99.90;;;;;;5071627;28;20610;-76
2023/10/03 12:09:09;;;;;;;4.30;3.23;;;20.00;99.90;;;;;;5074664;28;20596;-76
2023/10/03 12:11:40;;;;;;;3.97;2.40;;;19.90;99.90;;;;;;5071125;28;20606;-76
2023/10/03 12:14:08;;;;;;;6.67;3.40;;;19.90;99.90;;;;;;5053001;28;21023;-77
2023/10/03 12:16:33;;;;;;;6.47;2.97;;;19.80;99.90;;;;;;5070742;28;21143;-76
2023/10/03 12:18:59;;;;;;;4.53;2.70;;;19.70;99.90;;;;;;5070990;28;20593;-76
2023/10/03 12:21:25;;;;;;;6.00;2.60;;;19.60;99.90;;;;;;5052599;28;20207;-76
2023/10/03 12:23:50;;;;;;;8.47;2.73;;;19.50;99.90;;;;;;5070864;28;20202;-76
2023/10/03 12:26:16;;;;;;;4.20;3.00;;;19.50;99.90;;;;;;5052712;28;20271;-76
2023/10/03 12:28:42;;;;;;;3.07;2.67;;;19.40;99.90;;;;;;5053000;28;20215;-77
2023/10/03 12:31:09;;;;;;;8.90;4.60;;;19.40;99.90;;;;;;5070509;28;20818;-77
2023/10/03 12:33:35;;;;;;;7.30;3.50;;;19.30;99.90;;;;;;5070677;28;20612;-76
2023/10/03 12:36:02;;;;;;;4.30;2.50;;;19.20;99.90;;;;;;5070610;28;21280;-77
2023/10/03 12:38:28;;;;;;;5.83;3.47;;;19.20;99.90;;;;;;5070639;28;20176;-77
2023/10/03 12:40:54;;;;;;;5.20;2.13;;;19.20;99.90;;;;;;5052656;28;21047;-77
2023/10/03 12:43:21;;;;;;;3.90;2.33;;;19.10;99.90;;;;;;5052779;28;20585;-76
2023/10/03 12:45:49;;;;;;;3.03;2.37;;;19.10;99.90;;;;;;5056030;28;20667;-76
2023/10/03 12:48:15;;;;;;;2.93;1.07;;;19.10;99.90;;;;;;5070490;28;20617;-76
2023/10/03 12:50:41;;;;;;;2.70;1.00;;;19.00;99.90;;;;;;5070386;28;20645;-77
2023/10/03 12:53:10;;;;;;;3.33;0.90;;;19.00;99.90;;;;;;5075838;28;20199;-76
2023/10/03 12:55:36;;;;;;;3.10;0.87;;;18.90;99.90;;;;;;5077016;28;20526;-76
2023/10/03 12:58:03;;;;;;;2.90;1.00;;;18.90;99.90;;;;;;5077384;28;20946;-76
2023/10/03 13:00:29;;;;;;;2.47;1.10;;;18.90;99.90;;;;;;5076980;28;21019;-75